Time;durP1;ratioP1;P1;durP2;ratioP2;P2;SDS_P1;SDS_P2;PMS_P1;PMS_P2;Temp;Humidity;BMP_temperature;BMP_pressure;BME280_temperature;BME280_humidity;BME280_pressure;Samples;Min_cycle;Max_cycle;Signal;HPM_P1;HPM_P2
2021/01/03 00:01:45;;;;;;;14.82;7.85;;;3.20;99.90;;;;;;5078218;28;20400;-51
2021/01/03 00:04:11;;;;;;;16.77;8.77;;;5.10;99.90;;;;;;5076975;28;20798;-51
2021/01/03 00:06:37;;;;;;;15.27;8.00;;;2.80;99.90;;;;;;5076102;28;20402;-52
2021/01/03 00:09:04;;;;;;;13.77;7.80;;;5.70;99.90;;;;;;5075071;28;20522;-50
2021/01/03 00:11:30;;;;;;;11.55;6.95;;;2.80;99.90;;;;;;5084794;28;20453;-50
2021/01/03 00:13:55;;;;;;;13.73;7.47;;;2.80;99.90;;;;;;5075433;28;20391;-56
2021/01/03 00:16:21;;;;;;;14.40;7.87;;;5.20;99.90;;;;;;5075163;28;20892;-51
2021/01/03 00:18:46;;;;;;;11.93;6.60;;;2.70;99.90;;;;;;5076209;28;20407;-51
2021/01/03 00:21:12;;;;;;;13.00;7.43;;;5.40;99.90;;;;;;5078568;28;20378;-50
2021/01/03 00:23:38;;;;;;;17.45;8.27;;;2.60;99.90;;;;;;5081725;28;20407;-50
2021/01/03 00:26:04;;;;;;;12.13;7.57;;;2.70;99.90;;;;;;5074783;28;20403;-51
2021/01/03 00:28:30;;;;;;;14.70;7.60;;;2.90;99.90;;;;;;5078689;28;20453;-52
2021/01/03 00:30:56;;;;;;;10.95;6.60;;;2.80;99.90;;;;;;5074712;28;20454;-55
2021/01/03 00:33:21;;;;;;;12.70;7.43;;;0.60;99.90;;;;;;5075612;28;20403;-51
2021/01/03 00:35:47;;;;;;;13.20;7.57;;;4.40;99.90;;;;;;5078028;28;20725;-50
2021/01/03 00:38:14;;;;;;;12.35;7.25;;;4.00;99.90;;;;;;5077397;28;20410;-50
2021/01/03 00:40:40;;;;;;;14.13;8.10;;;2.70;99.90;;;;;;5081297;28;20397;-50
2021/01/03 00:43:07;;;;;;;24.95;11.55;;;4.90;99.90;;;;;;5079949;28;20398;-51
2021/01/03 00:45:33;;;;;;;14.30;7.10;;;2.70;99.90;;;;;;5080230;28;20891;-51
2021/01/03 00:47:59;;;;;;;12.57;7.22;;;2.70;99.90;;;;;;5078613;28;20424;-51
2021/01/03 00:50:26;;;;;;;14.65;7.72;;;2.70;99.90;;;;;;5084388;28;20373;-52
2021/01/03 00:52:51;;;;;;;18.50;8.20;;;2.70;99.90;;;;;;5082479;28;20403;-50
2021/01/03 00:55:18;;;;;;;12.73;7.30;;;2.80;99.90;;;;;;5078806;28;20959;-50
2021/01/03 00:57:43;;;;;;;13.63;7.60;;;2.60;99.90;;;;;;5086752;28;20384;-50
2021/01/03 01:00:14;;;;;;;14.60;7.80;;;2.60;99.90;;;;;;5078701;28;20381;-50
2021/01/03 01:02:40;;;;;;;14.18;8.52;;;2.70;99.90;;;;;;5080426;28;20407;-50
2021/01/03 01:05:06;;;;;;;13.93;8.73;;;2.70;99.90;;;;;;5079161;28;20533;-50
2021/01/03 01:07:32;;;;;;;16.55;8.80;;;2.70;99.90;;;;;;5077736;28;20415;-51
2021/01/03 01:09:57;;;;;;;16.33;8.10;;;3.20;99.90;;;;;;5080201;28;20392;-56
2021/01/03 01:12:23;;;;;;;13.40;7.72;;;2.80;99.90;;;;;;5078286;28;20401;-51
2021/01/03 01:14:49;;;;;;;14.20;8.27;;;5.50;99.90;;;;;;5080808;28;20396;-50
2021/01/03 01:17:15;;;;;;;16.23;8.67;;;3.90;99.90;;;;;;5077814;28;20395;-51
2021/01/03 01:19:40;;;;;;;15.60;8.50;;;3.80;99.90;;;;;;5084240;28;20424;-50
2021/01/03 01:22:06;;;;;;;14.30;7.60;;;5.50;99.90;;;;;;5076787;28;20436;-50
2021/01/03 01:24:31;;;;;;;14.68;8.20;;;3.30;99.90;;;;;;5084785;28;20883;-52
2021/01/03 01:26:57;;;;;;;13.80;8.40;;;2.50;99.90;;;;;;5083433;28;20394;-55
2021/01/03 01:29:23;;;;;;;13.37;8.40;;;2.50;99.90;;;;;;5082028;28;20495;-52
2021/01/03 01:31:48;;;;;;;16.85;8.32;;;2.50;99.90;;;;;;5079895;28;20406;-50
2021/01/03 01:34:14;;;;;;;15.30;8.23;;;3.40;99.90;;;;;;5081508;28;20390;-50
2021/01/03 01:36:40;;;;;;;15.23;8.85;;;2.50;99.90;;;;;;5079594;28;20394;-50
2021/01/03 01:39:06;;;;;;;14.13;8.30;;;4.00;99.90;;;;;;5077068;28;20805;-51
2021/01/03 01:41:31;;;;;;;14.13;7.70;;;2.60;99.90;;;;;;5083052;28;20374;-50
2021/01/03 01:43:57;;;;;;;14.13;8.23;;;2.60;99.90;;;;;;5079805;28;20865;-50
2021/01/03 01:46:42;;;;;;;15.60;8.50;;;4.90;99.90;;;;;;5074476;28;20402;-50
2021/01/03 01:49:12;;;;;;;14.98;8.75;;;2.60;99.90;;;;;;5079947;28;20423;-51
2021/01/03 01:51:43;;;;;;;15.05;8.50;;;2.60;99.90;;;;;;5072557;28;20820;-50
2021/01/03 01:54:18;;;;;;;15.55;9.18;;;2.60;99.90;;;;;;5082019;28;20440;-50
2021/01/03 01:57:07;;;;;;;14.82;9.07;;;2.40;99.90;;;;;;5077303;28;20437;-50
2021/01/03 02:00:05;;;;;;;13.40;8.30;;;4.40;99.90;;;;;;5079586;28;20404;-51
2021/01/03 02:02:37;;;;;;;15.90;8.93;;;2.50;99.90;;;;;;5073248;28;20402;-50
2021/01/03 02:05:10;;;;;;;15.63;8.73;;;2.50;99.90;;;;;;5077654;28;20397;-50
2021/01/03 02:07:47;;;;;;;14.13;8.40;;;2.40;99.90;;;;;;5079339;28;20410;-51
2021/01/03 02:10:18;;;;;;;16.83;9.30;;;3.00;99.90;;;;;;5080831;28;20724;-51
2021/01/03 02:12:48;;;;;;;17.02;9.68;;;2.30;99.90;;;;;;5078671;28;20446;-50
2021/01/03 02:15:28;;;;;;;16.25;10.00;;;2.80;99.90;;;;;;5078298;28;20461;-50
2021/01/03 02:17:54;;;;;;;17.40;9.70;;;2.30;99.90;;;;;;5078944;28;20406;-50
2021/01/03 02:20:22;;;;;;;18.13;9.60;;;2.30;99.90;;;;;;5078262;28;20392;-53
2021/01/03 02:22:47;;;;;;;18.30;10.03;;;2.20;99.90;;;;;;5076871;28;20429;-51
2021/01/03 02:25:15;;;;;;;17.23;10.30;;;2.60;99.90;;;;;;5079529;28;20439;-51
2021/01/03 02:28:05;;;;;;;18.55;10.23;;;2.00;99.90;;;;;;5076368;28;20409;-51
2021/01/03 02:30:30;;;;;;;19.38;10.43;;;2.10;99.90;;;;;;5077914;28;20483;-50
2021/01/03 02:33:17;;;;;;;23.23;11.70;;;2.00;99.90;;;;;;5079454;28;20844;-55
2021/01/03 02:35:45;;;;;;;20.05;10.70;;;2.70;99.90;;;;;;5080498;28;20395;-51
2021/01/03 02:38:13;;;;;;;20.88;10.98;;;3.30;99.90;;;;;;5080163;28;20389;-51
2021/01/03 02:40:38;;;;;;;20.88;11.45;;;2.10;99.90;;;;;;5077091;28;20402;-50
2021/01/03 02:43:04;;;;;;;18.57;11.17;;;4.10;99.90;;;;;;5077561;28;20397;-50
2021/01/03 02:45:31;;;;;;;21.20;11.70;;;2.80;99.90;;;;;;5078497;28;20407;-50
2021/01/03 02:48:02;;;;;;;20.20;11.98;;;1.70;99.90;;;;;;5077243;28;20494;-55
2021/01/03 02:50:29;;;;;;;24.40;12.53;;;4.50;99.90;;;;;;5080268;28;20576;-50
2021/01/03 02:52:56;;;;;;;21.75;11.43;;;1.80;99.90;;;;;;5077160;28;20434;-55
2021/01/03 02:55:22;;;;;;;18.95;11.00;;;1.80;99.90;;;;;;5077956;28;20396;-50
2021/01/03 02:57:48;;;;;;;20.60;11.95;;;4.50;99.90;;;;;;5080128;28;20382;-51
2021/01/03 03:00:22;;;;;;;20.23;12.20;;;1.70;99.90;;;;;;5076855;28;20934;-50
2021/01/03 03:02:48;;;;;;;20.25;11.40;;;1.80;99.90;;;;;;5072356;28;20387;-51
2021/01/03 03:05:15;;;;;;;21.83;11.82;;;1.90;99.90;;;;;;5076798;28;20428;-50
2021/01/03 03:07:41;;;;;;;21.92;12.60;;;1.80;99.90;;;;;;5077163;28;20502;-50
2021/01/03 03:10:08;;;;;;;22.37;11.80;;;4.00;99.90;;;;;;5080041;28;20461;-51
2021/01/03 03:12:33;;;;;;;22.05;12.80;;;1.70;99.90;;;;;;5079471;28;20772;-50
2021/01/03 03:14:59;;;;;;;24.00;12.93;;;1.70;99.90;;;;;;5077436;28;20870;-56
2021/01/03 03:17:24;;;;;;;23.80;13.13;;;3.50;99.90;;;;;;5091495;28;20804;-50
2021/01/03 03:19:50;;;;;;;23.70;12.90;;;4.20;99.90;;;;;;5091204;28;20531;-50
2021/01/03 03:22:16;;;;;;;25.52;13.68;;;4.60;99.90;;;;;;5090203;28;20378;-50
2021/01/03 03:24:41;;;;;;;24.48;13.35;;;1.80;99.90;;;;;;5090846;28;20394;-51
2021/01/03 03:27:07;;;;;;;27.10;13.17;;;1.60;99.90;;;;;;5090248;28;20387;-52
2021/01/03 03:29:36;;;;;;;25.63;13.75;;;1.60;99.90;;;;;;5091201;28;20454;-50
2021/01/03 03:32:01;;;;;;;25.20;14.00;;;1.50;99.90;;;;;;5090203;28;20386;-51
2021/01/03 03:34:27;;;;;;;26.13;14.23;;;1.60;99.90;;;;;;5091227;28;20366;-50
2021/01/03 03:36:54;;;;;;;25.90;13.77;;;1.60;99.90;;;;;;5090942;28;20385;-50
2021/01/03 03:39:20;;;;;;;25.58;13.70;;;1.60;99.90;;;;;;5089837;28;21266;-50
2021/01/03 03:41:46;;;;;;;26.10;14.02;;;1.50;99.90;;;;;;5090899;28;20865;-51
2021/01/03 03:44:11;;;;;;;29.35;15.50;;;1.50;99.90;;;;;;5090352;28;20402;-51
2021/01/03 03:46:37;;;;;;;26.85;14.50;;;4.00;99.90;;;;;;5090599;28;20378;-50
2021/01/03 03:49:03;;;;;;;25.40;14.33;;;1.60;99.90;;;;;;5089736;28;20451;-52
2021/01/03 03:51:29;;;;;;;25.63;14.27;;;1.60;99.90;;;;;;5090613;28;20386;-50
2021/01/03 03:53:55;;;;;;;26.00;14.80;;;1.70;99.90;;;;;;5090348;28;20501;-51
2021/01/03 03:56:21;;;;;;;29.90;15.50;;;1.70;99.90;;;;;;5089742;28;20394;-51
2021/01/03 03:58:46;;;;;;;27.70;14.53;;;1.70;99.90;;;;;;5090645;28;20843;-50
2021/01/03 04:01:12;;;;;;;28.92;14.77;;;1.70;99.90;;;;;;5089544;28;20731;-50
2021/01/03 04:03:38;;;;;;;29.55;15.02;;;3.20;99.90;;;;;;5090550;28;20432;-51
2021/01/03 04:06:05;;;;;;;28.65;14.93;;;4.20;99.90;;;;;;5089630;28;20381;-50
2021/01/03 04:08:30;;;;;;;30.15;15.10;;;1.60;99.90;;;;;;5090223;28;20389;-50
2021/01/03 04:10:57;;;;;;;28.50;15.70;;;1.80;99.90;;;;;;5090332;28;20482;-50
2021/01/03 04:13:23;;;;;;;29.05;15.23;;;1.60;99.90;;;;;;5089622;28;20467;-50
2021/01/03 04:15:49;;;;;;;27.23;15.10;;;2.70;99.90;;;;;;5089715;28;20855;-51
2021/01/03 04:18:15;;;;;;;28.33;15.73;;;1.50;99.90;;;;;;5089569;28;20378;-51
2021/01/03 04:20:40;;;;;;;28.13;15.60;;;1.60;99.90;;;;;;5090336;28;20882;-50
2021/01/03 04:23:07;;;;;;;28.00;15.03;;;1.60;99.90;;;;;;5089244;28;20394;-50
2021/01/03 04:25:34;;;;;;;28.50;15.27;;;3.20;99.90;;;;;;5090342;28;20385;-50
2021/01/03 04:28:00;;;;;;;29.10;14.60;;;3.30;99.90;;;;;;5089132;28;20763;-55
2021/01/03 04:30:27;;;;;;;28.00;15.27;;;2.70;99.90;;;;;;5090023;28;20390;-50
2021/01/03 04:32:53;;;;;;;29.40;15.35;;;1.90;99.90;;;;;;5090273;28;20373;-50
2021/01/03 04:35:21;;;;;;;28.67;15.70;;;4.00;99.90;;;;;;5088709;28;20390;-51
2021/01/03 04:37:49;;;;;;;30.77;15.40;;;1.60;99.90;;;;;;5089886;28;20385;-50
2021/01/03 04:40:19;;;;;;;30.03;15.40;;;3.20;99.90;;;;;;5088970;28;20378;-51
2021/01/03 04:42:50;;;;;;;28.00;15.90;;;1.60;99.90;;;;;;5090144;28;20373;-51
2021/01/03 04:45:37;;;;;;;30.00;15.43;;;3.10;99.90;;;;;;5089590;28;20444;-50
2021/01/03 04:48:04;;;;;;;27.92;15.30;;;4.30;99.90;;;;;;5089213;28;20404;-52
2021/01/03 04:50:57;;;;;;;28.77;15.57;;;1.70;99.90;;;;;;5090159;28;20385;-52
2021/01/03 04:53:35;;;;;;;28.08;14.93;;;1.70;99.90;;;;;;5088431;28;20465;-51
2021/01/03 04:56:21;;;;;;;27.97;15.80;;;1.80;99.90;;;;;;5089245;28;20382;-55
2021/01/03 04:58:54;;;;;;;26.95;14.77;;;1.70;99.90;;;;;;5089780;28;20386;-50
2021/01/03 05:01:38;;;;;;;27.23;14.68;;;1.80;99.90;;;;;;5088894;28;20457;-50
2021/01/03 05:04:20;;;;;;;27.75;14.93;;;1.70;99.90;;;;;;5089080;28;20382;-50
2021/01/03 05:06:51;;;;;;;27.90;15.20;;;3.10;99.90;;;;;;5089774;28;20469;-52
2021/01/03 05:09:17;;;;;;;30.00;15.88;;;3.70;99.90;;;;;;5088956;28;20406;-50
2021/01/03 05:12:21;;;;;;;30.08;15.45;;;4.10;99.90;;;;;;5089437;28;20435;-50
2021/01/03 05:15:02;;;;;;;30.42;16.08;;;1.80;99.90;;;;;;5079495;28;20418;-50
2021/01/03 05:17:28;;;;;;;28.35;15.60;;;3.80;99.90;;;;;;5075885;28;20431;-50
2021/01/03 05:19:54;;;;;;;26.90;14.90;;;4.10;99.90;;;;;;5075277;28;20402;-50
2021/01/03 05:22:37;;;;;;;31.90;15.70;;;3.80;99.90;;;;;;5077445;28;20840;-52
2021/01/03 05:25:06;;;;;;;29.48;15.95;;;1.80;99.90;;;;;;5073756;28;20396;-51
2021/01/03 05:27:32;;;;;;;30.80;16.80;;;1.80;99.90;;;;;;5079835;28;20396;-50
2021/01/03 05:30:15;;;;;;;31.35;15.45;;;1.70;99.90;;;;;;5078903;28;20392;-55
2021/01/03 05:32:41;;;;;;;29.33;15.27;;;1.70;99.90;;;;;;5081137;28;20899;-50
2021/01/03 05:35:26;;;;;;;31.30;16.30;;;1.80;99.90;;;;;;5084721;28;20502;-51
2021/01/03 05:37:55;;;;;;;31.15;15.57;;;1.80;99.90;;;;;;5079282;28;20754;-52
2021/01/03 05:40:40;;;;;;;32.33;15.45;;;3.70;99.90;;;;;;5079987;28;20401;-50
2021/01/03 05:43:20;;;;;;;34.70;16.92;;;4.30;99.90;;;;;;5077676;28;20398;-50
2021/01/03 05:46:08;;;;;;;30.10;15.70;;;1.70;99.90;;;;;;5079050;28;20408;-50
2021/01/03 05:48:57;;;;;;;33.10;16.48;;;2.10;99.90;;;;;;5067137;28;20412;-50
2021/01/03 05:51:38;;;;;;;31.23;15.80;;;2.60;99.90;;;;;;5078235;28;20397;-50
2021/01/03 05:54:07;;;;;;;31.98;16.55;;;1.70;99.90;;;;;;5080242;28;20462;-50
2021/01/03 05:56:35;;;;;;;32.05;15.90;;;1.80;99.90;;;;;;5080116;28;20397;-52
2021/01/03 05:59:01;;;;;;;31.38;15.80;;;1.80;99.90;;;;;;5080055;28;20403;-56
2021/01/03 06:01:35;;;;;;;30.48;16.10;;;1.70;99.90;;;;;;5083200;28;20374;-50
2021/01/03 06:04:07;;;;;;;28.20;15.40;;;4.70;99.90;;;;;;5083176;28;20473;-55
2021/01/03 06:06:48;;;;;;;30.35;15.25;;;1.70;99.90;;;;;;5084141;28;20481;-50
2021/01/03 06:09:15;;;;;;;30.50;16.27;;;1.80;99.90;;;;;;5077497;28;20753;-50
2021/01/03 06:11:55;;;;;;;32.92;16.27;;;4.70;99.90;;;;;;5078353;28;20409;-52
2021/01/03 06:14:24;;;;;;;31.95;15.70;;;4.60;99.90;;;;;;5082692;28;21029;-57
2021/01/03 06:16:49;;;;;;;29.40;16.00;;;4.00;99.90;;;;;;5078024;28;20400;-57
2021/01/03 06:19:28;;;;;;;28.00;14.87;;;2.60;99.90;;;;;;5078921;28;20391;-57
2021/01/03 06:22:01;;;;;;;27.75;14.82;;;1.90;99.90;;;;;;5086624;28;20391;-57
2021/01/03 06:24:28;;;;;;;26.58;14.77;;;2.60;99.90;;;;;;5100369;28;20388;-57
2021/01/03 06:26:54;;;;;;;28.33;15.38;;;1.90;99.90;;;;;;5100139;28;20399;-57
2021/01/03 06:29:48;;;;;;;28.60;14.95;;;2.50;99.90;;;;;;5093776;28;20412;-57
2021/01/03 06:32:37;;;;;;;32.13;16.15;;;1.90;99.90;;;;;;5093693;28;20388;-57
2021/01/03 06:35:26;;;;;;;26.75;14.95;;;2.00;99.90;;;;;;5098959;28;20929;-57
2021/01/03 06:38:25;;;;;;;25.63;13.90;;;4.20;99.90;;;;;;5083968;28;20395;-51
2021/01/03 06:40:57;;;;;;;28.13;15.10;;;2.00;99.90;;;;;;5087911;28;20402;-53
2021/01/03 06:43:50;;;;;;;26.40;14.23;;;2.10;99.90;;;;;;5077333;28;20472;-50
2021/01/03 06:46:37;;;;;;;33.22;17.05;;;2.10;99.90;;;;;;5077554;28;20427;-50
2021/01/03 06:49:14;;;;;;;38.27;18.23;;;2.00;99.90;;;;;;5079266;28;20417;-53
2021/01/03 06:52:04;;;;;;;34.70;16.35;;;1.90;99.90;;;;;;5082124;28;20429;-50
2021/01/03 06:55:02;;;;;;;35.70;17.17;;;1.80;99.90;;;;;;5082551;28;20405;-50
2021/01/03 06:57:53;;;;;;;30.37;16.03;;;1.80;99.90;;;;;;5077841;28;20434;-50
2021/01/03 07:00:26;;;;;;;37.38;18.90;;;1.90;99.90;;;;;;5083322;28;20396;-51
2021/01/03 07:02:54;;;;;;;33.83;17.20;;;1.90;99.90;;;;;;5075478;28;20390;-54
2021/01/03 07:05:21;;;;;;;29.70;16.75;;;3.50;99.90;;;;;;5081269;28;20390;-51
2021/01/03 07:08:09;;;;;;;30.30;15.80;;;1.90;99.90;;;;;;5083266;28;20504;-51
2021/01/03 07:10:43;;;;;;;32.22;16.67;;;4.20;99.90;;;;;;5076133;28;20412;-51
2021/01/03 07:13:42;;;;;;;41.53;21.55;;;1.80;99.90;;;;;;5079867;28;20382;-51
2021/01/03 07:16:29;;;;;;;37.50;20.10;;;3.40;99.90;;;;;;5047653;28;20408;-52
2021/01/03 07:19:02;;;;;;;31.67;16.80;;;2.10;99.90;;;;;;5075439;28;20479;-51
2021/01/03 07:21:39;;;;;;;36.00;17.37;;;3.10;99.90;;;;;;5076389;28;20402;-53
2021/01/03 07:24:30;;;;;;;32.70;17.23;;;1.50;99.90;;;;;;5082009;28;20390;-51
2021/01/03 07:27:17;;;;;;;33.90;16.58;;;1.50;99.90;;;;;;5077830;28;20794;-51
2021/01/03 07:29:55;;;;;;;34.95;16.95;;;1.50;99.90;;;;;;5077987;28;20426;-51
2021/01/03 07:32:23;;;;;;;33.15;17.15;;;1.40;99.90;;;;;;5077805;28;20870;-51
2021/01/03 07:34:51;;;;;;;36.40;18.37;;;1.40;99.90;;;;;;5073918;28;20394;-51
2021/01/03 07:37:28;;;;;;;34.25;17.55;;;1.30;99.90;;;;;;5078256;28;20393;-51
2021/01/03 07:40:09;;;;;;;35.17;17.63;;;1.60;99.90;;;;;;5076564;28;20513;-50
2021/01/03 07:42:39;;;;;;;38.08;18.00;;;1.30;99.90;;;;;;5077937;28;20398;-51
2021/01/03 07:45:13;;;;;;;38.25;17.60;;;1.20;99.90;;;;;;5077080;28;20390;-51
2021/01/03 07:47:50;;;;;;;37.50;17.67;;;1.20;99.90;;;;;;5076143;28;20398;-51
2021/01/03 07:50:19;;;;;;;34.67;16.77;;;1.20;99.90;;;;;;5073269;28;22017;-51
2021/01/03 07:52:45;;;;;;;36.35;17.48;;;1.30;99.90;;;;;;5075093;28;20478;-51
2021/01/03 07:55:23;;;;;;;35.63;16.57;;;1.40;99.90;;;;;;5074657;28;20518;-51
2021/01/03 07:57:58;;;;;;;32.97;16.73;;;1.50;99.90;;;;;;5074518;28;20886;-50
2021/01/03 08:00:25;;;;;;;33.80;16.98;;;1.50;99.90;;;;;;5076789;28;20412;-51
2021/01/03 08:02:56;;;;;;;31.63;16.02;;;4.20;99.90;;;;;;5077244;28;20468;-50
2021/01/03 08:05:24;;;;;;;33.85;17.20;;;3.80;99.90;;;;;;5078982;28;20382;-52
2021/01/03 08:07:50;;;;;;;30.98;16.17;;;1.80;99.90;;;;;;5074799;28;20425;-50
2021/01/03 08:10:17;;;;;;;33.57;15.90;;;3.10;99.90;;;;;;5073381;28;20406;-51
2021/01/03 08:12:48;;;;;;;35.47;16.90;;;1.50;99.90;;;;;;5078323;28;20886;-51
2021/01/03 08:15:17;;;;;;;34.63;16.10;;;1.60;99.90;;;;;;5073357;28;20399;-51
2021/01/03 08:17:44;;;;;;;34.97;17.77;;;-0.20;99.90;;;;;;5074712;28;20408;-50
2021/01/03 08:20:23;;;;;;;31.33;15.90;;;3.30;99.90;;;;;;5074844;28;20404;-52
2021/01/03 08:22:49;;;;;;;29.95;14.73;;;4.10;99.90;;;;;;5074123;28;20499;-51
2021/01/03 08:25:27;;;;;;;29.83;15.23;;;2.40;99.90;;;;;;5076538;28;20473;-50
2021/01/03 08:28:15;;;;;;;29.40;15.10;;;2.90;99.90;;;;;;5075057;28;20424;-50
2021/01/03 08:30:41;;;;;;;30.95;15.52;;;4.00;99.90;;;;;;5077466;28;20395;-52
2021/01/03 08:33:20;;;;;;;29.92;14.75;;;4.60;99.90;;;;;;5075862;28;20394;-51
2021/01/03 08:35:46;;;;;;;25.40;14.10;;;1.70;99.90;;;;;;5074164;28;20394;-51
2021/01/03 08:38:11;;;;;;;25.07;13.63;;;1.70;99.90;;;;;;5077881;28;20969;-51
2021/01/03 08:40:41;;;;;;;27.85;14.63;;;4.30;99.90;;;;;;5073577;28;20404;-50
2021/01/03 08:43:17;;;;;;;30.90;16.13;;;1.80;99.90;;;;;;5074474;28;20402;-51
2021/01/03 08:45:44;;;;;;;28.08;15.30;;;1.70;99.90;;;;;;5073304;28;20397;-51
2021/01/03 08:48:21;;;;;;;27.02;14.30;;;1.80;99.90;;;;;;5072030;28;20607;-53
2021/01/03 08:50:46;;;;;;;27.80;13.85;;;2.10;99.90;;;;;;5076632;28;20905;-51
2021/01/03 08:53:24;;;;;;;28.73;14.93;;;3.30;99.90;;;;;;5068081;28;20403;-52
2021/01/03 08:55:59;;;;;;;28.30;14.02;;;2.00;99.90;;;;;;5074072;28;20399;-50
2021/01/03 08:58:34;;;;;;;29.50;15.45;;;1.90;99.90;;;;;;5071107;28;20395;-53
2021/01/03 09:01:02;;;;;;;28.88;14.65;;;3.50;99.90;;;;;;5076481;28;20461;-55
2021/01/03 09:03:29;;;;;;;27.38;13.95;;;1.90;99.90;;;;;;5080152;28;20399;-50
2021/01/03 09:05:55;;;;;;;25.85;14.50;;;2.00;99.90;;;;;;5077000;28;20385;-50
2021/01/03 09:08:32;;;;;;;24.88;13.93;;;2.50;99.90;;;;;;5080625;28;20419;-50
2021/01/03 09:11:09;;;;;;;23.03;12.47;;;4.30;99.90;;;;;;5079086;28;20422;-50
2021/01/03 09:13:48;;;;;;;27.20;13.60;;;1.90;99.90;;;;;;5078203;28;20393;-50
2021/01/03 09:16:38;;;;;;;26.40;13.05;;;4.80;99.90;;;;;;5075962;28;20392;-51
2021/01/03 09:19:24;;;;;;;26.45;15.55;;;2.10;99.90;;;;;;5072694;28;20415;-55
2021/01/03 09:21:56;;;;;;;28.40;14.10;;;2.20;99.90;;;;;;5075252;28;20425;-50
2021/01/03 09:24:33;;;;;;;24.00;13.68;;;2.20;99.90;;;;;;5075220;28;20480;-50
2021/01/03 09:27:00;;;;;;;24.35;14.00;;;2.00;99.90;;;;;;5074572;28;20407;-52
2021/01/03 09:29:30;;;;;;;26.63;13.93;;;4.80;99.90;;;;;;5081159;28;20414;-53
2021/01/03 09:32:10;;;;;;;25.63;13.87;;;2.20;99.90;;;;;;5075254;28;20388;-51
2021/01/03 09:34:57;;;;;;;26.77;14.30;;;2.20;99.90;;;;;;5073285;28;20466;-52
2021/01/03 09:37:23;;;;;;;25.80;14.23;;;2.10;99.90;;;;;;5070335;28;20462;-53
2021/01/03 09:40:37;;;;;;;26.63;13.98;;;2.10;99.90;;;;;;5073991;28;20414;-51
2021/01/03 09:44:01;;;;;;;27.10;14.50;;;2.10;99.90;;;;;;5078172;28;20453;-56
2021/01/03 09:46:32;;;;;;;26.58;14.38;;;2.20;99.90;;;;;;5036074;28;20472;-52
2021/01/03 09:49:20;;;;;;;25.73;13.93;;;2.20;99.90;;;;;;5074577;28;20430;-52
2021/01/03 09:52:12;;;;;;;24.27;13.38;;;3.90;99.90;;;;;;5075046;28;20416;-51
2021/01/03 09:55:03;;;;;;;23.25;13.43;;;2.40;99.90;;;;;;5073128;28;20397;-51
2021/01/03 09:57:44;;;;;;;22.73;13.23;;;2.40;99.90;;;;;;5077847;28;20443;-51
2021/01/03 10:00:31;;;;;;;25.42;14.45;;;2.30;99.90;;;;;;5074466;28;20487;-51
2021/01/03 10:03:18;;;;;;;23.55;13.65;;;2.40;99.90;;;;;;5066961;28;20794;-50
2021/01/03 10:05:44;;;;;;;25.25;13.40;;;2.40;99.90;;;;;;5077923;28;20387;-50
2021/01/03 10:08:18;;;;;;;26.17;13.57;;;4.80;99.90;;;;;;5078220;28;20421;-50
2021/01/03 10:10:58;;;;;;;24.48;13.05;;;2.90;99.90;;;;;;5083748;28;20417;-50
2021/01/03 10:13:27;;;;;;;27.20;15.20;;;2.50;99.90;;;;;;5081112;28;20397;-51
2021/01/03 10:15:53;;;;;;;25.70;13.43;;;2.60;99.90;;;;;;5082580;28;20382;-50
2021/01/03 10:18:31;;;;;;;23.50;12.50;;;2.60;99.90;;;;;;5081856;28;20412;-50
2021/01/03 10:20:57;;;;;;;25.40;14.68;;;2.80;99.90;;;;;;5079588;28;20477;-51
2021/01/03 10:23:44;;;;;;;22.40;12.45;;;2.90;99.90;;;;;;5079093;28;20426;-53
2021/01/03 10:26:33;;;;;;;23.73;13.45;;;5.30;99.90;;;;;;5076899;28;20407;-51
2021/01/03 10:28:59;;;;;;;22.73;12.13;;;3.30;99.90;;;;;;5078491;28;20489;-51
2021/01/03 10:31:37;;;;;;;23.13;13.10;;;3.30;99.90;;;;;;5080328;28;20400;-51
2021/01/03 10:34:02;;;;;;;25.08;13.00;;;3.50;99.90;;;;;;5078152;28;20402;-56
2021/01/03 10:36:28;;;;;;;23.30;13.27;;;4.30;99.90;;;;;;5078289;28;20468;-51
2021/01/03 10:38:54;;;;;;;25.42;13.82;;;5.50;99.90;;;;;;5078888;28;20770;-51
2021/01/03 10:41:19;;;;;;;24.30;13.23;;;4.50;99.90;;;;;;5076703;28;20386;-52
2021/01/03 10:43:46;;;;;;;22.65;13.15;;;4.90;99.90;;;;;;5081373;28;20382;-53
2021/01/03 10:46:12;;;;;;;22.57;12.10;;;3.20;99.90;;;;;;5076798;28;20509;-50
2021/01/03 10:48:38;;;;;;;23.58;13.00;;;5.30;99.90;;;;;;5079711;28;20952;-50
2021/01/03 10:51:04;;;;;;;24.80;14.02;;;3.80;99.90;;;;;;5086366;28;20396;-56
2021/01/03 10:53:29;;;;;;;24.80;14.40;;;3.20;99.90;;;;;;5081500;28;20435;-51
2021/01/03 10:55:55;;;;;;;22.00;12.03;;;3.40;99.90;;;;;;5079551;28;20394;-51
2021/01/03 10:58:20;;;;;;;22.35;12.48;;;4.70;99.90;;;;;;5079443;28;20390;-51
2021/01/03 11:00:46;;;;;;;23.57;13.10;;;5.10;99.90;;;;;;5082173;28;20926;-51
2021/01/03 11:03:12;;;;;;;25.77;14.10;;;4.60;99.90;;;;;;5076251;28;20410;-51
2021/01/03 11:05:38;;;;;;;26.60;14.75;;;3.50;99.90;;;;;;5081958;28;20394;-53
2021/01/03 11:08:03;;;;;;;27.23;16.00;;;3.60;99.90;;;;;;5080802;28;20415;-57
2021/01/03 11:10:29;;;;;;;29.60;17.00;;;3.50;99.90;;;;;;5079552;28;20895;-52
2021/01/03 11:12:55;;;;;;;31.58;18.42;;;3.40;99.90;;;;;;5082547;28;20390;-51
2021/01/03 11:15:20;;;;;;;26.83;13.90;;;3.40;99.90;;;;;;5078342;28;20457;-52
2021/01/03 11:17:46;;;;;;;24.67;13.53;;;3.40;99.90;;;;;;5077410;28;20430;-51
2021/01/03 11:20:12;;;;;;;25.55;14.55;;;3.30;99.90;;;;;;5076387;28;20809;-50
2021/01/03 11:22:37;;;;;;;26.30;13.80;;;3.20;99.90;;;;;;5077344;28;20406;-51
2021/01/03 11:25:04;;;;;;;24.73;13.63;;;3.20;99.90;;;;;;5074409;28;20404;-50
2021/01/03 11:27:29;;;;;;;28.75;15.75;;;3.10;99.90;;;;;;5075432;28;20494;-52
2021/01/03 11:29:55;;;;;;;25.80;14.80;;;3.20;99.90;;;;;;5076520;28;20502;-52
2021/01/03 11:32:27;;;;;;;27.60;15.07;;;4.10;99.90;;;;;;5073623;28;21001;-49
2021/01/03 11:34:53;;;;;;;25.40;13.75;;;3.70;99.90;;;;;;5078762;28;20392;-49
2021/01/03 11:37:23;;;;;;;24.88;14.38;;;3.60;99.90;;;;;;5074038;28;20398;-49
2021/01/03 11:39:49;;;;;;;26.90;14.30;;;3.10;99.90;;;;;;5078130;28;20580;-50
2021/01/03 11:42:29;;;;;;;23.20;14.10;;;3.10;99.90;;;;;;5072516;28;20387;-50
2021/01/03 11:44:55;;;;;;;28.95;15.27;;;3.00;99.90;;;;;;5081813;28;20395;-50
2021/01/03 11:47:21;;;;;;;25.25;13.77;;;3.00;99.90;;;;;;5081344;28;20660;-50
2021/01/03 11:49:47;;;;;;;25.50;14.55;;;3.50;99.90;;;;;;5081775;28;20407;-49
2021/01/03 11:52:13;;;;;;;25.77;14.32;;;3.00;99.90;;;;;;5079925;28;20404;-50
2021/01/03 11:54:39;;;;;;;28.60;15.43;;;3.00;99.90;;;;;;5073986;28;20406;-52
2021/01/03 11:57:06;;;;;;;28.13;15.60;;;2.90;99.90;;;;;;5076852;28;20430;-51
2021/01/03 11:59:33;;;;;;;26.88;15.60;;;2.90;99.90;;;;;;5074639;28;20794;-50
2021/01/03 12:02:01;;;;;;;25.40;15.00;;;4.90;99.90;;;;;;5070527;28;20493;-50
2021/01/03 12:04:27;;;;;;;26.07;14.43;;;2.80;99.90;;;;;;5080646;28;20461;-49
2021/01/03 12:06:58;;;;;;;25.27;14.23;;;2.80;99.90;;;;;;5080131;28;20486;-51
2021/01/03 12:09:26;;;;;;;22.80;13.00;;;2.80;99.90;;;;;;5075335;28;20413;-50
2021/01/03 12:11:53;;;;;;;23.50;13.32;;;2.80;99.90;;;;;;5076381;28;20459;-56
2021/01/03 12:14:19;;;;;;;25.25;13.85;;;4.40;99.90;;;;;;5076453;28;20391;-49
2021/01/03 12:16:45;;;;;;;24.25;13.88;;;4.60;99.90;;;;;;5071661;28;20391;-50
2021/01/03 12:19:11;;;;;;;24.70;13.20;;;2.80;99.90;;;;;;5079445;28;20477;-50
2021/01/03 12:21:37;;;;;;;24.95;13.70;;;3.30;99.90;;;;;;5072108;28;20388;-49
2021/01/03 12:24:03;;;;;;;25.48;13.50;;;2.80;99.90;;;;;;5070149;28;20418;-54
2021/01/03 12:26:37;;;;;;;23.55;13.27;;;2.80;99.90;;;;;;5076092;28;20414;-50
2021/01/03 12:29:04;;;;;;;22.10;13.20;;;2.90;99.90;;;;;;5073429;28;20423;-55
2021/01/03 12:31:39;;;;;;;20.15;12.63;;;3.30;99.90;;;;;;5071518;28;20425;-54
2021/01/03 12:34:05;;;;;;;22.73;13.23;;;3.00;99.90;;;;;;5075130;28;20402;-56
2021/01/03 12:36:31;;;;;;;23.02;12.10;;;3.10;99.90;;;;;;5079496;28;20406;-52
2021/01/03 12:38:57;;;;;;;22.40;13.10;;;4.10;99.90;;;;;;5081096;28;20452;-52
2021/01/03 12:41:23;;;;;;;24.33;13.43;;;3.00;99.90;;;;;;5080385;28;20385;-53
2021/01/03 12:43:49;;;;;;;25.17;13.55;;;3.00;99.90;;;;;;5083502;28;20389;-53
2021/01/03 12:46:25;;;;;;;26.40;15.05;;;3.20;99.90;;;;;;5086414;28;20756;-53
2021/01/03 12:48:51;;;;;;;26.95;14.70;;;3.10;99.90;;;;;;5078616;28;21165;-53
2021/01/03 12:51:16;;;;;;;24.30;14.23;;;4.30;99.90;;;;;;5081793;28;20457;-54
2021/01/03 12:53:42;;;;;;;32.47;18.00;;;5.00;99.90;;;;;;5082943;28;20393;-52
2021/01/03 12:56:07;;;;;;;26.15;15.27;;;3.20;99.90;;;;;;5074288;28;20845;-52
2021/01/03 12:58:33;;;;;;;28.93;16.87;;;3.20;99.90;;;;;;5081000;28;20412;-53
2021/01/03 13:00:59;;;;;;;27.02;15.00;;;3.40;99.90;;;;;;5073799;28;20414;-52